Time;durP1;ratioP1;P1;durP2;ratioP2;P2;SDS_P1;SDS_P2;PMS_P1;PMS_P2;Temp;Humidity;BMP_temperature;BMP_pressure;BME280_temperature;BME280_humidity;BME280_pressure;Samples;Min_cycle;Max_cycle;Signal;HPM_P1;HPM_P2
2023/06/28 00:01:56;;;;;;;6.55;3.90;;;;;;;;;;4984137;28;20450;-64
2023/06/28 00:04:23;;;;;;;7.72;4.05;;;;;;;;;;4982851;28;20041;-66
2023/06/28 00:06:49;;;;;;;9.20;4.25;;;;;;;;;;4982916;28;20065;-65
2023/06/28 00:09:16;;;;;;;9.52;4.93;;;;;;;;;;4980192;28;20236;-64
2023/06/28 00:11:45;;;;;;;11.32;5.15;;;;;;;;;;4981220;28;20681;-65
2023/06/28 00:14:12;;;;;;;9.82;4.88;;;;;;;;;;4983983;28;20498;-65
2023/06/28 00:16:38;;;;;;;8.38;4.65;;;;;;;;;;4978512;28;20038;-65
2023/06/28 00:19:06;;;;;;;12.00;5.55;;;;;;;;;;4986024;28;21565;-67
2023/06/28 00:21:33;;;;;;;10.65;5.38;;;;;;;;;;4984925;28;20050;-66
2023/06/28 00:24:00;;;;;;;10.02;5.75;;;;;;;;;;4981245;28;20050;-66
2023/06/28 00:26:26;;;;;;;8.32;4.78;;;;;;;;;;4980690;28;20156;-67
2023/06/28 00:28:53;;;;;;;7.80;4.75;;;;;;;;;;4981431;28;20056;-66
2023/06/28 00:31:20;;;;;;;9.75;4.88;;;;;;;;;;4980869;28;20466;-65
2023/06/28 00:33:47;;;;;;;11.07;5.63;;;;;;;;;;4959462;28;20510;-66
2023/06/28 00:36:13;;;;;;;9.40;5.10;;;;;;;;;;4980314;28;20046;-66
2023/06/28 00:38:40;;;;;;;10.80;5.28;;;;;;;;;;4980595;28;20767;-66
2023/06/28 00:41:06;;;;;;;8.70;5.45;;;;;;;;;;4982564;28;20511;-65
2023/06/28 00:43:33;;;;;;;9.38;4.95;;;;;;;;;;4983826;28;22068;-66
2023/06/28 00:46:00;;;;;;;7.55;4.40;;;;;;;;;;4982145;28;20124;-67
2023/06/28 00:48:26;;;;;;;9.45;4.97;;;;;;;;;;4981500;28;20057;-66
2023/06/28 00:50:53;;;;;;;9.65;4.75;;;;;;;;;;4981969;28;20038;-65
2023/06/28 00:53:20;;;;;;;10.45;5.18;;;;;;;;;;4982568;28;20046;-66
2023/06/28 00:55:47;;;;;;;9.75;5.00;;;;;;;;;;4981433;28;20046;-66
2023/06/28 00:58:13;;;;;;;8.32;4.72;;;;;;;;;;4980768;28;20462;-67
2023/06/28 01:01:00;;;;;;;10.07;4.45;;;;;;;;;;4968782;28;20965;-67
2023/06/28 01:03:27;;;;;;;10.10;4.45;;;;;;;;;;4968765;28;20038;-66
2023/06/28 01:05:57;;;;;;;8.75;4.38;;;;;;;;;;4969382;28;20446;-67
2023/06/28 01:08:24;;;;;;;7.07;4.50;;;;;;;;;;4967918;28;20133;-66
2023/06/28 01:10:51;;;;;;;8.80;4.35;;;;;;;;;;4973152;28;20065;-67
2023/06/28 01:13:18;;;;;;;10.98;4.70;;;;;;;;;;4974065;28;20034;-65
2023/06/28 01:15:45;;;;;;;7.90;4.63;;;;;;;;;;4967272;28;20045;-66
2023/06/28 01:18:12;;;;;;;8.30;4.40;;;;;;;;;;4966964;28;20066;-66
2023/06/28 01:20:38;;;;;;;7.53;4.15;;;;;;;;;;4960115;28;20120;-65
2023/06/28 01:23:05;;;;;;;9.07;4.80;;;;;;;;;;4981749;28;20380;-66
2023/06/28 01:25:32;;;;;;;13.30;5.72;;;;;;;;;;4965587;28;20157;-67
2023/06/28 01:27:59;;;;;;;8.68;4.80;;;;;;;;;;4968694;28;20050;-66
2023/06/28 01:30:25;;;;;;;12.95;5.60;;;;;;;;;;4965720;28;20053;-67
2023/06/28 01:32:52;;;;;;;7.95;5.00;;;;;;;;;;4969232;28;20054;-72
2023/06/28 01:35:19;;;;;;;11.02;4.85;;;;;;;;;;4963782;28;20046;-67
2023/06/28 01:37:46;;;;;;;9.68;4.05;;;;;;;;;;4970761;28;20041;-68
2023/06/28 01:40:13;;;;;;;8.82;4.50;;;;;;;;;;4984185;28;20462;-67
2023/06/28 01:42:40;;;;;;;10.05;5.00;;;;;;;;;;4984488;28;20038;-67
2023/06/28 01:45:07;;;;;;;8.45;4.38;;;;;;;;;;4984386;28;20503;-68
2023/06/28 01:47:34;;;;;;;7.50;3.67;;;;;;;;;;4983631;28;20858;-68
2023/06/28 01:50:01;;;;;;;7.57;4.35;;;;;;;;;;4983344;28;20061;-65
2023/06/28 01:52:27;;;;;;;11.25;4.95;;;;;;;;;;4982322;28;20044;-67
2023/06/28 01:54:54;;;;;;;6.97;3.85;;;;;;;;;;4986321;28;20042;-68
2023/06/28 01:57:20;;;;;;;6.93;4.03;;;;;;;;;;4983857;28;20038;-66
2023/06/28 01:59:47;;;;;;;8.18;3.90;;;;;;;;;;4968679;28;20972;-66
2023/06/28 02:02:14;;;;;;;8.55;3.95;;;;;;;;;;4986433;28;20084;-67
2023/06/28 02:04:40;;;;;;;7.75;4.35;;;;;;;;;;4984761;28;20045;-67
2023/06/28 02:07:07;;;;;;;6.28;4.10;;;;;;;;;;4984263;28;20113;-71
2023/06/28 02:09:34;;;;;;;6.53;3.90;;;;;;;;;;4985349;28;20045;-67
2023/06/28 02:12:00;;;;;;;7.85;4.13;;;;;;;;;;4985475;28;20041;-68
2023/06/28 02:14:27;;;;;;;9.68;4.07;;;;;;;;;;4985664;28;20046;-68
2023/06/28 02:16:54;;;;;;;6.47;3.95;;;;;;;;;;4984971;28;20499;-67
2023/06/28 02:19:21;;;;;;;8.85;4.18;;;;;;;;;;4987101;28;20131;-66
2023/06/28 02:21:48;;;;;;;10.45;4.35;;;;;;;;;;4984848;28;20553;-67
2023/06/28 02:24:17;;;;;;;10.48;4.45;;;;;;;;;;4985115;28;20042;-68
2023/06/28 02:26:44;;;;;;;8.55;4.00;;;;;;;;;;4982029;28;20045;-67
2023/06/28 02:29:10;;;;;;;7.82;4.60;;;;;;;;;;4986700;28;20667;-67
2023/06/28 02:31:37;;;;;;;11.55;5.05;;;;;;;;;;4985335;28;20097;-65
2023/06/28 02:34:03;;;;;;;10.68;4.65;;;;;;;;;;4988201;28;20050;-68
2023/06/28 02:36:31;;;;;;;10.57;5.00;;;;;;;;;;4979508;28;20042;-67
2023/06/28 02:38:58;;;;;;;10.32;4.63;;;;;;;;;;4986107;28;20434;-67
2023/06/28 02:41:24;;;;;;;11.23;4.22;;;;;;;;;;4982253;28;20168;-66
2023/06/28 02:43:51;;;;;;;9.73;4.72;;;;;;;;;;4984263;28;20145;-66
2023/06/28 02:46:18;;;;;;;9.95;4.28;;;;;;;;;;4984408;28;20292;-66
2023/06/28 02:48:44;;;;;;;10.23;4.57;;;;;;;;;;4983613;28;20042;-66
2023/06/28 02:51:11;;;;;;;8.25;4.05;;;;;;;;;;4985700;28;20038;-66
2023/06/28 02:53:37;;;;;;;8.55;4.13;;;;;;;;;;4986128;28;20391;-66
2023/06/28 02:56:04;;;;;;;7.72;4.43;;;;;;;;;;4984171;28;20077;-66
2023/06/28 02:58:31;;;;;;;9.27;4.65;;;;;;;;;;4985386;28;20048;-68
2023/06/28 03:00:58;;;;;;;6.68;4.00;;;;;;;;;;4981344;28;20057;-66
2023/06/28 03:03:24;;;;;;;20.75;4.65;;;;;;;;;;4996021;28;20038;-66
2023/06/28 03:05:51;;;;;;;10.70;4.95;;;;;;;;;;4982856;28;20050;-67
2023/06/28 03:08:18;;;;;;;6.68;3.45;;;;;;;;;;4986209;28;20509;-65
2023/06/28 03:10:44;;;;;;;5.90;3.42;;;;;;;;;;4985289;28;20106;-66
2023/06/28 03:13:11;;;;;;;6.50;3.45;;;;;;;;;;4983058;28;20813;-67
2023/06/28 03:15:38;;;;;;;8.40;2.92;;;;;;;;;;4990832;28;20730;-66
2023/06/28 03:18:04;;;;;;;6.78;3.38;;;;;;;;;;4987512;28;21699;-66
2023/06/28 03:20:31;;;;;;;6.85;3.10;;;;;;;;;;4989517;28;20106;-66
2023/06/28 03:22:57;;;;;;;11.40;3.42;;;;;;;;;;4988098;28;20129;-65
2023/06/28 03:25:24;;;;;;;7.60;2.92;;;;;;;;;;4985056;28;20050;-67
2023/06/28 03:27:51;;;;;;;6.22;3.35;;;;;;;;;;4983230;28;20073;-66
2023/06/28 03:30:17;;;;;;;9.15;3.78;;;;;;;;;;4985358;28;20037;-66
2023/06/28 03:32:44;;;;;;;11.88;3.80;;;;;;;;;;4982447;28;20049;-66
2023/06/28 03:35:11;;;;;;;7.25;3.38;;;;;;;;;;4984225;28;20046;-66
2023/06/28 03:37:37;;;;;;;10.13;3.58;;;;;;;;;;4981757;28;20034;-65
2023/06/28 03:40:04;;;;;;;10.45;3.65;;;;;;;;;;4983153;28;20042;-66
2023/06/28 03:42:31;;;;;;;10.55;3.78;;;;;;;;;;4983252;28;20030;-66
2023/06/28 03:44:57;;;;;;;10.88;4.07;;;;;;;;;;4984858;28;20052;-66
2023/06/28 03:47:24;;;;;;;6.82;3.65;;;;;;;;;;4980677;28;20136;-66
2023/06/28 03:49:51;;;;;;;7.47;3.25;;;;;;;;;;4983051;28;20044;-67
2023/06/28 03:52:17;;;;;;;6.57;3.50;;;;;;;;;;4984488;28;20038;-66
2023/06/28 03:54:44;;;;;;;9.23;3.90;;;;;;;;;;4993766;28;20041;-66
2023/06/28 03:57:11;;;;;;;7.78;3.88;;;;;;;;;;4994571;28;20117;-66
2023/06/28 03:59:37;;;;;;;7.53;3.95;;;;;;;;;;4991610;28;20093;-64
2023/06/28 04:02:04;;;;;;;9.05;3.53;;;;;;;;;;4991534;28;20041;-65
2023/06/28 04:04:31;;;;;;;8.70;4.28;;;;;;;;;;4990543;28;20046;-65
2023/06/28 04:07:00;;;;;;;11.23;3.33;;;;;;;;;;4990810;28;20038;-64
2023/06/28 04:09:27;;;;;;;9.38;4.05;;;;;;;;;;4989846;28;20053;-66
2023/06/28 04:11:53;;;;;;;8.43;3.28;;;;;;;;;;4989163;28;20042;-63
2023/06/28 04:14:20;;;;;;;8.20;4.03;;;;;;;;;;4990794;28;20054;-65
2023/06/28 04:16:47;;;;;;;6.65;3.80;;;;;;;;;;4991127;28;20410;-66
2023/06/28 04:19:13;;;;;;;11.50;3.63;;;;;;;;;;4989033;28;20454;-66
2023/06/28 04:21:40;;;;;;;10.38;3.85;;;;;;;;;;4981869;28;20057;-66
2023/06/28 04:24:07;;;;;;;12.00;3.88;;;;;;;;;;5005060;28;20046;-67
2023/06/28 04:26:34;;;;;;;8.18;3.78;;;;;;;;;;4989724;28;20038;-66
2023/06/28 04:29:00;;;;;;;8.60;3.70;;;;;;;;;;4987737;28;20061;-66
2023/06/28 04:31:28;;;;;;;10.23;3.60;;;;;;;;;;4991331;28;20050;-64
2023/06/28 04:33:59;;;;;;;8.43;3.60;;;;;;;;;;4993728;28;20038;-65
2023/06/28 04:36:26;;;;;;;6.97;3.70;;;;;;;;;;4994484;28;20038;-65
2023/06/28 04:38:54;;;;;;;9.93;3.78;;;;;;;;;;4996185;28;20046;-66
2023/06/28 04:41:25;;;;;;;9.10;3.78;;;;;;;;;;4994758;28;20056;-67
2023/06/28 04:43:56;;;;;;;10.27;4.20;;;;;;;;;;4996869;28;20149;-66
2023/06/28 04:46:26;;;;;;;9.15;3.63;;;;;;;;;;4995502;28;20058;-66
2023/06/28 04:48:53;;;;;;;10.48;3.72;;;;;;;;;;4996264;28;20116;-67
2023/06/28 04:51:21;;;;;;;9.05;3.97;;;;;;;;;;4993978;28;20057;-66
2023/06/28 04:53:48;;;;;;;8.25;4.35;;;;;;;;;;4994450;28;20053;-65
2023/06/28 04:56:15;;;;;;;9.30;3.78;;;;;;;;;;4993420;28;20041;-68
2023/06/28 04:58:42;;;;;;;8.63;4.22;;;;;;;;;;4971451;28;20791;-66
2023/06/28 05:01:08;;;;;;;6.38;3.75;;;;;;;;;;4974600;28;20302;-67
2023/06/28 05:03:35;;;;;;;8.90;4.40;;;;;;;;;;4972185;28;20520;-67
2023/06/28 05:06:10;;;;;;;8.98;3.95;;;;;;;;;;4971602;28;20102;-66
2023/06/28 05:08:36;;;;;;;8.00;4.18;;;;;;;;;;4970352;28;20046;-67
2023/06/28 05:11:03;;;;;;;11.55;4.43;;;;;;;;;;4972103;28;20034;-66
2023/06/28 05:13:30;;;;;;;9.82;4.75;;;;;;;;;;4971697;28;20165;-67
2023/06/28 05:15:57;;;;;;;7.95;4.35;;;;;;;;;;4969752;28;20046;-68
2023/06/28 05:18:23;;;;;;;8.27;4.03;;;;;;;;;;4972147;28;20224;-66
2023/06/28 05:20:50;;;;;;;9.50;4.13;;;;;;;;;;4971351;28;20050;-70
2023/06/28 05:23:17;;;;;;;8.68;3.85;;;;;;;;;;4970111;28;21286;-68
2023/06/28 05:25:45;;;;;;;10.55;4.30;;;;;;;;;;4968649;28;20049;-67
2023/06/28 05:28:14;;;;;;;10.07;4.55;;;;;;;;;;4954457;28;20045;-65
2023/06/28 05:30:41;;;;;;;10.48;4.40;;;;;;;;;;4971226;28;20556;-66
2023/06/28 05:33:08;;;;;;;10.10;4.50;;;;;;;;;;4970475;28;20101;-65
2023/06/28 05:35:35;;;;;;;15.23;4.60;;;;;;;;;;4975144;28;20039;-66
2023/06/28 05:38:05;;;;;;;14.88;4.47;;;;;;;;;;4996712;28;20042;-67
2023/06/28 05:40:32;;;;;;;10.52;4.80;;;;;;;;;;4995604;28;20509;-66
2023/06/28 05:42:59;;;;;;;8.10;4.35;;;;;;;;;;4991308;28;20030;-65
2023/06/28 05:45:26;;;;;;;8.75;4.65;;;;;;;;;;4991877;28;20593;-65
2023/06/28 05:47:53;;;;;;;11.15;4.60;;;;;;;;;;4994248;28;20463;-65
2023/06/28 05:50:23;;;;;;;10.57;4.65;;;;;;;;;;4993766;28;20138;-65
2023/06/28 05:52:50;;;;;;;11.50;4.53;;;;;;;;;;4995873;28;20050;-66
2023/06/28 05:55:17;;;;;;;8.98;4.05;;;;;;;;;;4993384;28;20399;-66
2023/06/28 05:57:45;;;;;;;9.98;4.13;;;;;;;;;;4993799;28;20072;-65
2023/06/28 06:00:12;;;;;;;10.23;4.53;;;;;;;;;;4994790;28;20034;-66
2023/06/28 06:02:39;;;;;;;11.10;4.55;;;;;;;;;;4984480;28;20100;-66
2023/06/28 06:05:06;;;;;;;12.13;4.32;;;;;;;;;;4997929;28;20096;-66
2023/06/28 06:07:34;;;;;;;11.15;4.60;;;;;;;;;;4996627;28;20072;-66
2023/06/28 06:10:01;;;;;;;10.02;4.28;;;;;;;;;;4994194;28;20494;-65
2023/06/28 06:12:27;;;;;;;10.27;4.43;;;;;;;;;;4992753;28;20034;-65
2023/06/28 06:14:56;;;;;;;9.75;4.32;;;;;;;;;;4995481;28;20566;-65
2023/06/28 06:17:23;;;;;;;10.98;4.28;;;;;;;;;;4994301;28;20041;-69
2023/06/28 06:19:50;;;;;;;9.02;4.18;;;;;;;;;;4996051;28;20034;-67
2023/06/28 06:22:16;;;;;;;9.18;3.85;;;;;;;;;;4994340;28;20057;-65
2023/06/28 06:24:43;;;;;;;11.38;4.60;;;;;;;;;;4992496;28;20089;-66
2023/06/28 06:27:10;;;;;;;13.00;4.93;;;;;;;;;;4993672;28;20127;-67
2023/06/28 06:29:36;;;;;;;13.98;4.30;;;;;;;;;;4996156;28;20037;-66
2023/06/28 06:32:03;;;;;;;9.23;4.32;;;;;;;;;;5001487;28;20061;-67
2023/06/28 06:34:29;;;;;;;8.30;4.50;;;;;;;;;;4997999;28;20042;-66
2023/06/28 06:36:57;;;;;;;16.52;6.32;;;;;;;;;;5002825;28;20044;-66
2023/06/28 06:39:23;;;;;;;14.93;6.20;;;;;;;;;;4998075;28;20049;-66
2023/06/28 06:41:50;;;;;;;8.00;4.47;;;;;;;;;;4997891;28;20037;-65
2023/06/28 06:44:17;;;;;;;8.10;4.57;;;;;;;;;;4998753;28;20129;-66
2023/06/28 06:46:44;;;;;;;9.68;4.88;;;;;;;;;;4992243;28;20064;-68
2023/06/28 06:49:10;;;;;;;10.35;4.80;;;;;;;;;;4997969;28;20057;-68
2023/06/28 06:51:37;;;;;;;11.13;4.47;;;;;;;;;;4998126;28;20080;-65
2023/06/28 06:54:04;;;;;;;11.07;4.60;;;;;;;;;;4995616;28;20077;-66
2023/06/28 06:56:31;;;;;;;9.30;4.93;;;;;;;;;;4992032;28;20041;-64
2023/06/28 06:58:58;;;;;;;8.90;4.40;;;;;;;;;;4991590;28;20038;-66
2023/06/28 07:01:24;;;;;;;8.13;4.30;;;;;;;;;;4991573;28;20057;-65
2023/06/28 07:03:52;;;;;;;8.98;4.85;;;;;;;;;;4991193;28;20840;-65
2023/06/28 07:06:18;;;;;;;8.30;4.53;;;;;;;;;;4995647;28;20129;-66
2023/06/28 07:08:46;;;;;;;8.10;4.35;;;;;;;;;;4991695;28;20081;-65
2023/06/28 07:11:13;;;;;;;10.45;4.70;;;;;;;;;;4998809;28;20140;-66
2023/06/28 07:13:40;;;;;;;9.50;4.85;;;;;;;;;;4992657;28;20276;-66
2023/06/28 07:16:06;;;;;;;9.23;5.03;;;;;;;;;;4995366;28;20041;-65
2023/06/28 07:18:33;;;;;;;10.00;4.75;;;;;;;;;;4995821;28;20048;-65
2023/06/28 07:20:59;;;;;;;9.20;5.05;;;;;;;;;;4994053;28;20048;-66
2023/06/28 07:23:26;;;;;;;10.60;4.55;;;;;;;;;;4993916;28;20061;-67
2023/06/28 07:25:53;;;;;;;13.13;4.80;;;;;;;;;;4994315;28;20064;-66
2023/06/28 07:28:19;;;;;;;9.75;4.32;;;;;;;;;;4993892;28;20050;-67
2023/06/28 07:30:53;;;;;;;8.43;4.65;;;;;;;;;;4995474;28;20587;-65
2023/06/28 07:33:23;;;;;;;8.15;4.03;;;;;;;;;;4993894;28;20503;-65
2023/06/28 07:35:50;;;;;;;11.30;4.25;;;;;;;;;;4993395;28;20048;-66
2023/06/28 07:38:20;;;;;;;8.98;4.80;;;;;;;;;;4996150;28;20042;-64
2023/06/28 07:40:47;;;;;;;10.68;4.60;;;;;;;;;;4996130;28;20049;-64
2023/06/28 07:43:14;;;;;;;10.55;4.65;;;;;;;;;;4995656;28;20046;-63
2023/06/28 07:45:41;;;;;;;10.65;4.93;;;;;;;;;;4994154;28;20041;-64
2023/06/28 07:48:08;;;;;;;8.32;4.28;;;;;;;;;;5000459;28;20048;-65
2023/06/28 07:50:35;;;;;;;11.50;4.60;;;;;;;;;;4993425;28;20038;-65
2023/06/28 07:53:02;;;;;;;9.82;4.68;;;;;;;;;;4998455;28;20046;-65
2023/06/28 07:55:29;;;;;;;12.55;5.38;;;;;;;;;;4992958;28;20464;-64
2023/06/28 07:57:56;;;;;;;9.10;5.15;;;;;;;;;;4992343;28;20038;-66
2023/06/28 08:00:22;;;;;;;8.82;4.57;;;;;;;;;;4992535;28;21460;-65
2023/06/28 08:02:49;;;;;;;12.35;4.88;;;;;;;;;;5002926;28;20072;-65
2023/06/28 08:05:19;;;;;;;11.32;4.95;;;;;;;;;;4963821;28;20066;-67
2023/06/28 08:07:47;;;;;;;12.90;4.90;;;;;;;;;;4990786;28;20041;-65
2023/06/28 08:10:14;;;;;;;9.82;4.57;;;;;;;;;;4983287;28;20049;-66
2023/06/28 08:12:41;;;;;;;12.27;5.20;;;;;;;;;;4997471;28;20030;-65
2023/06/28 08:15:08;;;;;;;10.75;5.28;;;;;;;;;;4998281;28;20034;-65
2023/06/28 08:17:34;;;;;;;9.80;4.93;;;;;;;;;;4995404;28;20034;-65
2023/06/28 08:20:01;;;;;;;10.23;5.05;;;;;;;;;;4992838;28;20153;-65
2023/06/28 08:22:28;;;;;;;10.05;5.25;;;;;;;;;;4997656;28;20366;-65
2023/06/28 08:24:54;;;;;;;11.88;5.03;;;;;;;;;;4995725;28;20057;-70
2023/06/28 08:27:21;;;;;;;9.38;4.88;;;;;;;;;;4992627;28;20064;-69
2023/06/28 08:29:50;;;;;;;9.98;5.20;;;;;;;;;;4996921;28;20067;-66
2023/06/28 08:32:17;;;;;;;11.93;5.10;;;;;;;;;;4996376;28;20052;-65
2023/06/28 08:34:43;;;;;;;11.20;4.90;;;;;;;;;;4991990;28;20516;-64
2023/06/28 08:37:11;;;;;;;17.40;5.13;;;;;;;;;;4995580;28;20054;-64
2023/06/28 08:39:37;;;;;;;8.82;4.90;;;;;;;;;;4994719;28;20038;-64
2023/06/28 08:42:04;;;;;;;13.65;5.22;;;;;;;;;;4997058;28;20084;-63
2023/06/28 08:44:32;;;;;;;15.30;5.68;;;;;;;;;;4993837;28;20046;-64
2023/06/28 08:47:03;;;;;;;11.23;5.30;;;;;;;;;;4995109;28;20418;-64
2023/06/28 08:49:31;;;;;;;7.60;4.75;;;;;;;;;;4987197;28;20042;-63
2023/06/28 08:51:58;;;;;;;14.95;5.25;;;;;;;;;;4985688;28;20052;-64
2023/06/28 08:54:28;;;;;;;9.77;5.10;;;;;;;;;;4995251;28;20205;-64
2023/06/28 08:56:58;;;;;;;9.35;5.32;;;;;;;;;;4995706;28;20042;-64
2023/06/28 08:59:25;;;;;;;11.75;5.32;;;;;;;;;;4994716;28;20030;-64
2023/06/28 09:01:55;;;;;;;11.60;5.63;;;;;;;;;;4995500;28;20101;-64
2023/06/28 09:04:25;;;;;;;7.22;4.80;;;;;;;;;;4994458;28;20037;-63
2023/06/28 09:06:51;;;;;;;11.85;4.78;;;;;;;;;;4996273;28;20053;-64
2023/06/28 09:09:19;;;;;;;14.63;5.85;;;;;;;;;;4992328;28;20038;-63
2023/06/28 09:11:46;;;;;;;12.15;5.30;;;;;;;;;;4995330;28;20054;-64
2023/06/28 09:14:13;;;;;;;11.45;4.63;;;;;;;;;;4998714;28;20084;-64
2023/06/28 09:16:40;;;;;;;10.82;5.13;;;;;;;;;;4997772;28;20570;-64
2023/06/28 09:19:06;;;;;;;15.00;5.95;;;;;;;;;;4998206;28;20505;-64
2023/06/28 09:21:34;;;;;;;9.02;5.30;;;;;;;;;;4994094;28;21844;-65
2023/06/28 09:24:01;;;;;;;12.05;5.88;;;;;;;;;;4987422;28;20053;-64
2023/06/28 09:26:31;;;;;;;14.48;5.78;;;;;;;;;;4991953;28;20041;-64
2023/06/28 09:29:01;;;;;;;15.25;5.18;;;;;;;;;;4992286;28;20046;-63
2023/06/28 09:31:33;;;;;;;10.10;4.97;;;;;;;;;;4995747;28;20606;-65
2023/06/28 09:34:00;;;;;;;12.68;4.95;;;;;;;;;;4997544;28;20588;-64
2023/06/28 09:36:29;;;;;;;8.70;5.30;;;;;;;;;;4994544;28;20056;-64
2023/06/28 09:38:56;;;;;;;10.15;5.25;;;;;;;;;;4993094;28;20125;-65
2023/06/28 09:41:24;;;;;;;9.60;5.35;;;;;;;;;;4995535;28;20046;-64
2023/06/28 09:43:51;;;;;;;11.95;4.95;;;;;;;;;;4994841;28;20043;-65
2023/06/28 09:46:18;;;;;;;10.77;4.93;;;;;;;;;;4991085;28;20034;-65
2023/06/28 09:48:46;;;;;;;10.85;4.70;;;;;;;;;;4993832;28;20046;-65
2023/06/28 09:51:15;;;;;;;14.07;5.60;;;;;;;;;;4993844;28;20042;-65
2023/06/28 09:53:49;;;;;;;10.75;4.97;;;;;;;;;;5000406;28;20053;-68
2023/06/28 09:56:16;;;;;;;9.05;4.68;;;;;;;;;;4996299;28;20046;-66
2023/06/28 09:58:46;;;;;;;8.85;5.30;;;;;;;;;;4992302;28;20705;-65
2023/06/28 10:01:15;;;;;;;9.90;5.13;;;;;;;;;;4993010;28;20042;-66
2023/06/28 10:03:42;;;;;;;13.40;4.85;;;;;;;;;;4993121;28;20859;-70
2023/06/28 10:06:10;;;;;;;10.43;5.03;;;;;;;;;;4994817;28;20544;-65
2023/06/28 10:08:37;;;;;;;12.93;5.25;;;;;;;;;;4992803;28;20480;-65
2023/06/28 10:11:07;;;;;;;9.13;4.63;;;;;;;;;;4995862;28;20541;-65
2023/06/28 10:13:34;;;;;;;14.32;5.25;;;;;;;;;;4993926;28;20117;-64
2023/06/28 10:16:01;;;;;;;13.05;5.40;;;;;;;;;;4994481;28;20038;-65
2023/06/28 10:18:28;;;;;;;11.98;5.05;;;;;;;;;;4996026;28;20064;-65
2023/06/28 10:20:55;;;;;;;11.45;5.25;;;;;;;;;;4991962;28;20056;-67
2023/06/28 10:23:22;;;;;;;9.20;5.15;;;;;;;;;;4992019;28;20045;-66
2023/06/28 10:25:49;;;;;;;10.18;5.43;;;;;;;;;;4989288;28;20080;-66
2023/06/28 10:28:15;;;;;;;8.75;4.75;;;;;;;;;;4992938;28;20077;-64
2023/06/28 10:30:43;;;;;;;12.48;4.90;;;;;;;;;;4994077;28;20034;-64
2023/06/28 10:33:11;;;;;;;8.63;4.85;;;;;;;;;;4983197;28;20037;-66
2023/06/28 10:35:39;;;;;;;8.52;4.85;;;;;;;;;;4990549;28;20060;-66
2023/06/28 10:38:06;;;;;;;11.27;4.97;;;;;;;;;;4992760;28;20437;-66
2023/06/28 10:40:33;;;;;;;12.65;5.50;;;;;;;;;;4993505;28;20030;-66
2023/06/28 10:43:00;;;;;;;10.55;5.53;;;;;;;;;;4993854;28;20817;-65
2023/06/28 10:45:36;;;;;;;11.18;5.13;;;;;;;;;;4997907;28;20510;-66
2023/06/28 10:48:04;;;;;;;11.82;5.07;;;;;;;;;;4993908;28;20418;-67
2023/06/28 10:50:40;;;;;;;9.70;5.10;;;;;;;;;;4991608;28;20069;-66
2023/06/28 10:53:07;;;;;;;9.57;5.30;;;;;;;;;;4991449;28;20062;-67
2023/06/28 10:55:36;;;;;;;11.45;5.30;;;;;;;;;;4988436;28;20126;-65
2023/06/28 10:58:09;;;;;;;10.77;5.40;;;;;;;;;;4989663;28;20045;-66
2023/06/28 11:00:39;;;;;;;9.65;5.20;;;;;;;;;;4988633;28;20137;-65
2023/06/28 11:03:06;;;;;;;11.88;5.22;;;;;;;;;;4991708;28;20038;-65
2023/06/28 11:05:56;;;;;;;13.25;5.20;;;;;;;;;;4990644;28;20034;-65
2023/06/28 11:08:37;;;;;;;10.77;5.18;;;;;;;;;;4990789;28;20073;-65
2023/06/28 11:11:03;;;;;;;9.57;5.10;;;;;;;;;;4971729;28;20065;-65
2023/06/28 11:13:33;;;;;;;11.70;5.60;;;;;;;;;;4983920;28;20140;-65
2023/06/28 11:16:12;;;;;;;9.70;5.28;;;;;;;;;;5004888;28;20061;-65
2023/06/28 11:18:39;;;;;;;7.68;4.50;;;;;;;;;;4990934;28;20426;-65
2023/06/28 11:21:06;;;;;;;8.40;5.15;;;;;;;;;;4991492;28;20119;-65
2023/06/28 11:23:37;;;;;;;7.95;4.88;;;;;;;;;;4989976;28;20188;-65
2023/06/28 11:26:07;;;;;;;9.35;5.00;;;;;;;;;;4992705;28;20049;-65
2023/06/28 11:28:36;;;;;;;9.10;4.75;;;;;;;;;;4993936;28;20050;-66
2023/06/28 11:31:16;;;;;;;9.48;4.70;;;;;;;;;;4989985;28;20042;-68
2023/06/28 11:33:43;;;;;;;8.80;5.40;;;;;;;;;;4991276;28;20029;-67
2023/06/28 11:36:11;;;;;;;9.32;4.80;;;;;;;;;;4992875;28;20042;-65
2023/06/28 11:38:38;;;;;;;9.88;5.18;;;;;;;;;;4993102;28;20670;-66
2023/06/28 11:41:05;;;;;;;8.50;4.53;;;;;;;;;;4988646;28;20107;-66
2023/06/28 11:43:32;;;;;;;8.70;5.15;;;;;;;;;;4988461;28;20481;-67
2023/06/28 11:45:59;;;;;;;10.00;5.07;;;;;;;;;;4991560;28;20041;-65
2023/06/28 11:48:26;;;;;;;10.15;5.28;;;;;;;;;;4990357;28;20045;-66
2023/06/28 11:51:03;;;;;;;8.30;4.68;;;;;;;;;;4976449;28;20632;-65
2023/06/28 11:53:30;;;;;;;8.60;5.05;;;;;;;;;;4974688;28;20046;-66
2023/06/28 11:55:57;;;;;;;11.05;5.82;;;;;;;;;;5002366;28;20255;-63
2023/06/28 11:58:28;;;;;;;8.07;4.78;;;;;;;;;;4990379;28;20763;-63
2023/06/28 12:00:55;;;;;;;10.23;4.97;;;;;;;;;;4988961;28;20053;-63
2023/06/28 12:03:30;;;;;;;14.70;5.68;;;;;;;;;;4989758;28;20128;-66
2023/06/28 12:05:58;;;;;;;9.75;4.90;;;;;;;;;;4990648;28;20056;-65
2023/06/28 12:08:25;;;;;;;9.30;5.25;;;;;;;;;;4993499;28;20592;-64
2023/06/28 12:10:51;;;;;;;9.07;5.30;;;;;;;;;;4994854;28;20044;-64
2023/06/28 12:13:24;;;;;;;10.77;5.47;;;;;;;;;;4994962;28;20069;-65
2023/06/28 12:15:52;;;;;;;9.43;5.75;;;;;;;;;;4989424;28;20041;-65
2023/06/28 12:18:19;;;;;;;10.77;5.40;;;;;;;;;;4990867;28;20778;-66
2023/06/28 12:20:45;;;;;;;12.95;5.05;;;;;;;;;;4992873;28;20176;-65
2023/06/28 12:23:13;;;;;;;10.63;5.75;;;;;;;;;;4990486;28;20034;-68
2023/06/28 12:25:42;;;;;;;10.10;4.47;;;;;;;;;;4988453;28;20041;-64
2023/06/28 12:28:13;;;;;;;14.18;5.90;;;;;;;;;;4988927;28;20112;-64
2023/06/28 12:30:40;;;;;;;14.13;5.35;;;;;;;;;;4988017;28;20034;-65
2023/06/28 12:33:07;;;;;;;10.57;5.72;;;;;;;;;;4988985;28;20077;-66
2023/06/28 12:35:34;;;;;;;13.07;5.80;;;;;;;;;;4990587;28;20048;-64
2023/06/28 12:38:02;;;;;;;12.50;5.78;;;;;;;;;;4991199;28;20038;-64
2023/06/28 12:40:32;;;;;;;10.23;5.03;;;;;;;;;;4991927;28;20038;-66
2023/06/28 12:43:18;;;;;;;14.13;5.60;;;;;;;;;;4993296;28;20475;-66
2023/06/28 12:45:45;;;;;;;14.18;6.05;;;;;;;;;;4989980;28;25190;-65
2023/06/28 12:48:16;;;;;;;11.52;5.40;;;;;;;;;;4992228;28;20038;-66
2023/06/28 12:50:50;;;;;;;10.95;5.55;;;;;;;;;;4990852;28;20048;-64
2023/06/28 12:53:17;;;;;;;12.43;5.85;;;;;;;;;;4993064;28;20093;-66
2023/06/28 12:55:43;;;;;;;8.30;5.07;;;;;;;;;;4992551;28;20398;-64
2023/06/28 12:58:10;;;;;;;12.13;5.75;;;;;;;;;;4997483;28;20451;-66
2023/06/28 13:00:38;;;;;;;10.27;5.32;;;;;;;;;;4994596;28;20582;-66
2023/06/28 13:03:09;;;;;;;15.32;5.50;;;;;;;;;;4993545;28;20457;-64
2023/06/28 13:05:36;;;;;;;10.52;5.57;;;;;;;;;;4991648;28;20042;-65
2023/06/28 13:08:03;;;;;;;8.48;5.18;;;;;;;;;;4995327;28;20088;-66
2023/06/28 13:10:30;;;;;;;11.60;5.18;;;;;;;;;;4994151;28;20050;-65
2023/06/28 13:12:56;;;;;;;12.65;5.70;;;;;;;;;;4992724;28;20042;-65
2023/06/28 13:15:23;;;;;;;9.52;5.25;;;;;;;;;;4995448;28;20034;-65
2023/06/28 13:17:50;;;;;;;8.60;5.13;;;;;;;;;;4994660;28;20041;-65
2023/06/28 13:20:16;;;;;;;10.57;4.90;;;;;;;;;;4994485;28;20418;-65
2023/06/28 13:22:43;;;;;;;9.57;5.15;;;;;;;;;;4993759;28;20383;-65
2023/06/28 13:25:09;;;;;;;9.57;5.47;;;;;;;;;;4994851;28;20133;-64
2023/06/28 13:27:36;;;;;;;11.25;5.43;;;;;;;;;;4994539;28;20506;-64
2023/06/28 13:30:03;;;;;;;14.43;5.65;;;;;;;;;;4996370;28;20053;-66
2023/06/28 13:32:31;;;;;;;13.05;5.03;;;;;;;;;;4996394;28;20057;-67
2023/06/28 13:34:57;;;;;;;9.48;4.85;;;;;;;;;;4998483;28;20034;-67
2023/06/28 13:37:24;;;;;;;9.73;5.00;;;;;;;;;;4995774;28;20038;-66
2023/06/28 13:39:51;;;;;;;7.82;4.82;;;;;;;;;;4995867;28;20039;-66
2023/06/28 13:42:18;;;;;;;9.90;5.82;;;;;;;;;;4995319;28;20054;-66
2023/06/28 13:44:44;;;;;;;12.65;4.85;;;;;;;;;;4991333;28;20045;-66
2023/06/28 13:47:11;;;;;;;10.32;5.30;;;;;;;;;;4984150;28;20050;-68
2023/06/28 13:49:40;;;;;;;9.52;5.80;;;;;;;;;;4993007;28;20120;-66
2023/06/28 13:52:07;;;;;;;9.70;4.93;;;;;;;;;;4988608;28;20042;-65
2023/06/28 13:54:35;;;;;;;9.40;5.30;;;;;;;;;;4995030;28;20042;-66
2023/06/28 13:57:02;;;;;;;8.45;5.20;;;;;;;;;;4996841;28;20400;-66
2023/06/28 13:59:29;;;;;;;9.43;5.20;;;;;;;;;;4997257;28;20094;-66
2023/06/28 14:01:56;;;;;;;11.68;5.70;;;;;;;;;;4997143;28;20045;-66
2023/06/28 14:04:22;;;;;;;8.43;5.05;;;;;;;;;;4996582;28;20038;-66
2023/06/28 14:06:49;;;;;;;9.60;5.50;;;;;;;;;;4998211;28;20045;-65
2023/06/28 14:09:16;;;;;;;11.50;5.53;;;;;;;;;;4993262;28;20045;-66
2023/06/28 14:11:44;;;;;;;11.52;5.53;;;;;;;;;;4996431;28;20052;-65
2023/06/28 14:14:10;;;;;;;8.48;5.32;;;;;;;;;;4978729;28;20038;-65
2023/06/28 14:16:37;;;;;;;12.52;5.50;;;;;;;;;;4991988;28;20037;-65
2023/06/28 14:19:03;;;;;;;10.50;5.18;;;;;;;;;;4992763;28;20050;-65
2023/06/28 14:21:30;;;;;;;7.72;4.88;;;;;;;;;;4992215;28;20050;-65
2023/06/28 14:23:57;;;;;;;14.60;5.93;;;;;;;;;;4995861;28;20491;-67
2023/06/28 14:26:24;;;;;;;8.25;5.25;;;;;;;;;;4999143;28;20064;-65
2023/06/28 14:28:50;;;;;;;10.95;5.57;;;;;;;;;;4981473;28;21315;-65
2023/06/28 14:31:17;;;;;;;11.20;6.03;;;;;;;;;;4990836;28;20050;-66
2023/06/28 14:33:47;;;;;;;9.88;5.47;;;;;;;;;;5004536;28;20054;-65
2023/06/28 14:36:14;;;;;;;13.52;5.60;;;;;;;;;;5003588;28;20052;-66
2023/06/28 14:38:41;;;;;;;9.35;5.18;;;;;;;;;;5005041;28;20050;-66